Time;durP1;ratioP1;P1;durP2;ratioP2;P2;SDS_P1;SDS_P2;PMS_P1;PMS_P2;Temp;Humidity;BMP_temperature;BMP_pressure;BME280_temperature;BME280_humidity;BME280_pressure;Samples;Min_cycle;Max_cycle;Signal;HPM_P1;HPM_P2
2021/12/23 00:02:23;;;;;;;28.88;17.17;;;-0.30;99.90;;;;;;5015478;28;20042;-88
2021/12/23 00:04:49;;;;;;;31.67;16.58;;;-0.30;99.90;;;;;;5014783;28;20281;-88
2021/12/23 00:07:14;;;;;;;30.90;17.02;;;-0.30;99.90;;;;;;5013434;28;20046;-88
2021/12/23 00:12:18;;;;;;;32.38;17.35;;;-0.30;99.90;;;;;;5013306;28;20025;-88
2021/12/23 00:14:50;;;;;;;34.22;18.13;;;-0.30;99.90;;;;;;5010860;28;20021;-89
2021/12/23 00:25:15;;;;;;;34.70;17.05;;;-0.30;99.90;;;;;;5015106;28;20608;-88
2021/12/23 00:27:41;;;;;;;30.40;15.90;;;-0.20;99.90;;;;;;5011716;28;20132;-88
2021/12/23 00:30:07;;;;;;;35.72;18.00;;;-0.20;99.90;;;;;;5007912;28;20030;-88
2021/12/23 00:32:33;;;;;;;30.08;16.23;;;-0.20;99.90;;;;;;5011628;28;20037;-88
2021/12/23 00:34:59;;;;;;;37.63;17.50;;;-0.30;99.90;;;;;;5011931;28;20018;-88
2021/12/23 00:37:25;;;;;;;33.85;17.23;;;-0.20;99.90;;;;;;5011393;28;20030;-88
2021/12/23 00:39:52;;;;;;;36.90;18.17;;;-0.20;99.90;;;;;;5011609;28;20029;-88
2021/12/23 00:42:17;;;;;;;31.02;17.05;;;-0.20;99.90;;;;;;5011776;28;20441;-89
2021/12/23 00:44:47;;;;;;;29.17;16.08;;;-0.20;99.90;;;;;;5014051;28;20026;-88
2021/12/23 00:47:14;;;;;;;32.58;16.67;;;-0.20;99.90;;;;;;5012874;28;20044;-88
2021/12/23 00:49:40;;;;;;;34.45;17.80;;;-0.20;99.90;;;;;;5014819;28;20029;-88
2021/12/23 00:52:08;;;;;;;31.70;17.13;;;-0.20;99.90;;;;;;5012488;28;20034;-88
2021/12/23 00:54:34;;;;;;;32.55;17.20;;;-0.20;99.90;;;;;;5012036;28;20049;-88
2021/12/23 00:57:00;;;;;;;32.53;17.63;;;-0.20;99.90;;;;;;5002868;28;20072;-88
2021/12/23 00:59:25;;;;;;;34.15;17.58;;;-0.20;99.90;;;;;;5015134;28;20064;-88
2021/12/23 01:01:51;;;;;;;34.75;18.63;;;-0.20;99.90;;;;;;5005762;28;20105;-88
2021/12/23 01:04:17;;;;;;;31.13;17.58;;;-0.20;99.90;;;;;;5010125;28;20026;-88
2021/12/23 01:06:43;;;;;;;34.47;18.17;;;-0.20;99.90;;;;;;4995151;28;20027;-89
2021/12/23 01:09:08;;;;;;;30.73;17.20;;;-0.20;99.90;;;;;;5009748;28;20171;-88
2021/12/23 01:11:34;;;;;;;32.42;17.45;;;-0.20;99.90;;;;;;5012125;28;20028;-88
2021/12/23 01:14:04;;;;;;;35.53;17.35;;;-0.20;99.90;;;;;;5012375;28;20037;-88
2021/12/23 01:16:48;;;;;;;34.75;18.00;;;-0.20;99.90;;;;;;5010668;28;20029;-88
2021/12/23 01:19:16;;;;;;;33.00;17.73;;;-0.20;99.90;;;;;;5012113;28;20030;-88
2021/12/23 01:21:42;;;;;;;32.53;18.35;;;-0.20;99.90;;;;;;5012854;28;20022;-88
2021/12/23 01:24:09;;;;;;;31.35;17.08;;;-0.20;99.90;;;;;;5028473;28;20390;-88
2021/12/23 01:26:36;;;;;;;32.75;18.42;;;-0.20;99.90;;;;;;5014736;28;20022;-87
2021/12/23 01:29:02;;;;;;;32.50;17.45;;;-0.20;99.90;;;;;;5019692;28;20033;-88
2021/12/23 01:31:30;;;;;;;33.78;18.52;;;-0.20;99.90;;;;;;5011556;28;20040;-88
2021/12/23 01:33:56;;;;;;;35.47;20.20;;;-0.20;99.90;;;;;;5012184;28;20041;-88
2021/12/23 01:36:24;;;;;;;36.20;19.52;;;-0.20;99.90;;;;;;5012056;28;20038;-88
2021/12/23 01:38:50;;;;;;;38.80;18.05;;;-0.20;99.90;;;;;;5016035;28;20026;-88
2021/12/23 01:41:17;;;;;;;38.63;20.35;;;-0.20;99.90;;;;;;5015430;28;20455;-88
2021/12/23 01:43:43;;;;;;;37.55;19.05;;;-0.20;99.90;;;;;;5015715;28;20036;-88
2021/12/23 01:46:09;;;;;;;33.38;17.50;;;-0.20;99.90;;;;;;5014569;28;20022;-88
2021/12/23 01:48:35;;;;;;;32.95;17.45;;;-0.20;99.90;;;;;;5016209;28;20375;-88
2021/12/23 01:51:01;;;;;;;31.85;17.55;;;-0.20;99.90;;;;;;5015333;28;20647;-88
2021/12/23 01:53:26;;;;;;;29.77;17.48;;;-0.10;99.90;;;;;;5022443;28;20037;-88
2021/12/23 01:55:52;;;;;;;33.10;17.67;;;-0.10;99.90;;;;;;5015610;28;20037;-88
2021/12/23 01:58:18;;;;;;;34.72;17.95;;;-0.10;99.90;;;;;;5016905;28;20025;-88
2021/12/23 02:00:50;;;;;;;34.83;17.63;;;-0.10;99.90;;;;;;5025648;28;20080;-88
2021/12/23 02:03:17;;;;;;;36.83;19.08;;;-0.10;99.90;;;;;;5016369;28;20110;-88
2021/12/23 02:05:43;;;;;;;33.17;18.92;;;-0.10;99.90;;;;;;5016143;28;20041;-88
2021/12/23 02:08:09;;;;;;;34.95;18.65;;;-0.10;99.90;;;;;;5015047;28;20225;-89
2021/12/23 02:10:35;;;;;;;35.00;19.65;;;-0.20;99.90;;;;;;5022322;28;20486;-88
2021/12/23 02:13:02;;;;;;;34.83;18.63;;;-0.20;99.90;;;;;;5015500;28;20034;-88
2021/12/23 02:15:27;;;;;;;33.05;18.20;;;-0.20;99.90;;;;;;5013838;28;20026;-88
2021/12/23 02:17:54;;;;;;;35.42;17.48;;;-0.30;99.90;;;;;;5015048;28;20397;-88
2021/12/23 02:20:25;;;;;;;36.65;18.35;;;-0.30;99.90;;;;;;5013159;28;20041;-88
2021/12/23 02:22:51;;;;;;;32.67;18.23;;;-0.30;99.90;;;;;;5013719;28;20374;-88
2021/12/23 02:25:17;;;;;;;39.15;18.40;;;-0.40;99.90;;;;;;5015313;28;20006;-88
2021/12/23 02:27:44;;;;;;;36.22;18.65;;;-0.40;99.90;;;;;;5015061;28;20041;-88
2021/12/23 02:30:15;;;;;;;31.77;18.05;;;-0.50;99.90;;;;;;5035978;28;20021;-88
2021/12/23 02:32:40;;;;;;;41.13;18.38;;;-0.50;99.90;;;;;;5015807;28;20486;-88
2021/12/23 02:35:11;;;;;;;37.03;18.65;;;-0.60;99.90;;;;;;5026741;28;20120;-88
2021/12/23 02:37:36;;;;;;;33.38;18.30;;;-0.60;99.90;;;;;;5015265;28;20475;-88
2021/12/23 02:40:03;;;;;;;38.55;19.15;;;-0.70;99.90;;;;;;5009611;28;20018;-89
2021/12/23 02:42:29;;;;;;;36.45;17.42;;;-0.70;99.90;;;;;;5009934;28;20068;-89
2021/12/23 02:44:54;;;;;;;29.80;16.38;;;-0.70;99.90;;;;;;5016275;28;20053;-88
2021/12/23 02:47:20;;;;;;;32.25;17.05;;;-0.80;99.90;;;;;;5012929;28;20118;-88
2021/12/23 02:49:46;;;;;;;33.35;17.45;;;-0.80;99.90;;;;;;5013734;28;20041;-88
2021/12/23 02:52:11;;;;;;;33.35;18.05;;;-0.80;99.90;;;;;;5015309;28;20037;-88
2021/12/23 02:54:37;;;;;;;35.88;18.98;;;-0.80;99.90;;;;;;5017199;28;20022;-88
2021/12/23 02:57:03;;;;;;;37.95;19.50;;;-0.80;99.90;;;;;;5010078;28;20113;-88
2021/12/23 02:59:29;;;;;;;34.58;18.08;;;-0.90;99.90;;;;;;5011556;28;20037;-87
2021/12/23 03:01:55;;;;;;;39.03;20.08;;;-0.90;99.90;;;;;;5014357;28;20038;-88
2021/12/23 03:04:21;;;;;;;36.55;18.65;;;-0.90;99.90;;;;;;5014345;28;20121;-88
2021/12/23 03:06:47;;;;;;;34.88;17.52;;;-0.90;99.90;;;;;;5015267;28;20125;-89
2021/12/23 03:09:12;;;;;;;39.58;20.17;;;-0.90;99.90;;;;;;5012700;28;20504;-88
2021/12/23 03:11:40;;;;;;;38.05;19.50;;;-1.00;99.90;;;;;;5010571;28;20035;-88
2021/12/23 03:14:06;;;;;;;36.63;19.60;;;-1.00;99.90;;;;;;5000921;28;20033;-89
2021/12/23 03:16:35;;;;;;;42.13;19.75;;;-1.00;99.90;;;;;;5013964;28;20052;-88
2021/12/23 03:19:01;;;;;;;41.58;19.77;;;-1.10;99.90;;;;;;5013887;28;20018;-88
2021/12/23 03:21:27;;;;;;;40.75;19.23;;;-1.10;99.90;;;;;;5014156;28;20501;-88
2021/12/23 03:23:52;;;;;;;40.70;19.13;;;-1.10;99.90;;;;;;5016105;28;20029;-88
2021/12/23 03:26:19;;;;;;;38.30;20.33;;;-1.10;99.90;;;;;;5011601;28;20044;-88
2021/12/23 03:28:44;;;;;;;43.58;19.25;;;-1.10;99.90;;;;;;5014705;28;20092;-89
2021/12/23 03:31:10;;;;;;;36.20;17.60;;;-1.10;99.90;;;;;;5018286;28;20026;-88
2021/12/23 03:33:35;;;;;;;33.00;17.55;;;-1.20;99.90;;;;;;5020447;28;20037;-88
2021/12/23 03:36:01;;;;;;;34.03;17.52;;;-1.20;99.90;;;;;;5013406;28;20437;-88
2021/12/23 03:38:27;;;;;;;37.40;19.83;;;-1.20;99.90;;;;;;5012076;28;20037;-87
2021/12/23 03:40:54;;;;;;;35.88;19.35;;;-1.20;99.90;;;;;;5012370;28;20044;-88
2021/12/23 03:43:20;;;;;;;38.35;18.73;;;-1.20;99.90;;;;;;5013364;28;20034;-88
2021/12/23 03:45:47;;;;;;;31.55;17.13;;;-1.20;99.90;;;;;;5013808;28;20036;-89
2021/12/23 03:48:14;;;;;;;41.53;19.17;;;-1.30;99.90;;;;;;5013508;28;20033;-88
2021/12/23 03:50:40;;;;;;;40.45;20.25;;;-1.30;99.90;;;;;;5018706;28;20050;-88
2021/12/23 03:53:06;;;;;;;34.85;19.23;;;-1.30;99.90;;;;;;4999118;28;20034;-88
2021/12/23 03:55:31;;;;;;;35.90;17.95;;;-1.30;99.90;;;;;;5015348;28;20029;-89
2021/12/23 03:57:57;;;;;;;39.58;19.15;;;-1.20;99.90;;;;;;5015076;28;20041;-88
2021/12/23 04:00:24;;;;;;;38.60;19.10;;;-1.20;99.90;;;;;;5014394;28;20025;-88
2021/12/23 04:02:51;;;;;;;38.25;18.92;;;-1.20;99.90;;;;;;5014186;28;20046;-88
2021/12/23 04:05:17;;;;;;;35.65;18.65;;;-1.10;99.90;;;;;;5014495;28;20114;-87
2021/12/23 04:07:43;;;;;;;38.40;19.05;;;-1.10;99.90;;;;;;5021777;28;20026;-88
2021/12/23 04:10:12;;;;;;;43.25;19.05;;;-1.00;99.90;;;;;;5016912;28;20386;-88
2021/12/23 04:12:38;;;;;;;43.38;18.98;;;-1.00;99.90;;;;;;5014104;28;20057;-88
2021/12/23 04:15:04;;;;;;;39.05;19.33;;;-1.00;99.90;;;;;;5020934;28;20058;-88
2021/12/23 04:17:29;;;;;;;35.90;18.75;;;-1.00;99.90;;;;;;5013145;28;20030;-89
2021/12/23 04:20:02;;;;;;;40.20;19.60;;;-0.90;99.90;;;;;;5013359;28;20080;-89
2021/12/23 04:22:28;;;;;;;37.40;19.77;;;-0.90;99.90;;;;;;5004746;28;20053;-88
2021/12/23 04:24:54;;;;;;;34.22;17.95;;;-0.90;99.90;;;;;;5014315;28;20467;-88
2021/12/23 04:27:19;;;;;;;37.30;18.90;;;-0.90;99.90;;;;;;5011864;28;20034;-88
2021/12/23 04:29:45;;;;;;;36.45;18.85;;;-0.80;99.90;;;;;;5013112;28;20041;-89
2021/12/23 04:32:10;;;;;;;42.92;20.10;;;-0.80;99.90;;;;;;5012323;28;20034;-89
2021/12/23 04:34:36;;;;;;;37.95;19.52;;;-0.80;99.90;;;;;;5012488;28;20033;-88
2021/12/23 04:37:01;;;;;;;37.67;19.25;;;-0.80;99.90;;;;;;5012644;28;20406;-89
2021/12/23 04:39:27;;;;;;;39.53;20.02;;;-0.80;99.90;;;;;;5012902;28;20036;-88
2021/12/23 04:41:53;;;;;;;38.75;19.88;;;-0.80;99.90;;;;;;5013387;28;20030;-88
2021/12/23 04:44:18;;;;;;;42.15;19.15;;;-0.80;99.90;;;;;;5013445;28;20552;-88
2021/12/23 04:46:44;;;;;;;40.40;20.15;;;-0.70;99.90;;;;;;5009629;28;20069;-88
2021/12/23 04:49:10;;;;;;;41.25;19.17;;;-0.70;99.90;;;;;;5007714;28;20037;-88
2021/12/23 04:51:35;;;;;;;40.80;19.45;;;-0.70;99.90;;;;;;5012153;28;20037;-88
2021/12/23 04:54:01;;;;;;;37.83;21.20;;;-0.70;99.90;;;;;;5013108;28;20389;-89
2021/12/23 04:56:26;;;;;;;40.05;20.00;;;-0.70;99.90;;;;;;5012194;28;20026;-88
2021/12/23 04:58:52;;;;;;;36.83;20.10;;;-0.70;99.90;;;;;;5027420;28;20035;-89
2021/12/23 05:01:27;;;;;;;39.08;20.13;;;-0.70;99.90;;;;;;5023930;28;20032;-88
2021/12/23 05:03:52;;;;;;;40.22;19.65;;;-0.60;99.90;;;;;;5012022;28;20149;-89
2021/12/23 05:06:18;;;;;;;40.30;20.42;;;-0.50;99.90;;;;;;5014751;28;20057;-89
2021/12/23 05:08:44;;;;;;;40.80;20.35;;;-0.40;99.90;;;;;;5012297;28;20057;-89
2021/12/23 05:11:10;;;;;;;35.42;17.70;;;-0.40;99.90;;;;;;5005244;28;20026;-89
2021/12/23 05:13:35;;;;;;;38.10;19.73;;;-0.30;99.90;;;;;;5012924;28;20201;-89
2021/12/23 05:16:01;;;;;;;38.03;20.42;;;-0.30;99.90;;;;;;5012345;28;20080;-89
2021/12/23 05:18:27;;;;;;;40.17;19.67;;;-0.40;99.90;;;;;;5017835;28;20088;-89
2021/12/23 05:20:52;;;;;;;39.05;19.88;;;-0.50;99.90;;;;;;5006350;28;20467;-89
2021/12/23 05:23:18;;;;;;;38.22;19.25;;;-0.50;99.90;;;;;;5001973;28;21497;-90
2021/12/23 05:25:44;;;;;;;38.90;21.23;;;-0.50;99.90;;;;;;5021899;28;20116;-88
2021/12/23 05:28:11;;;;;;;42.90;21.73;;;-0.50;99.90;;;;;;5011995;28;20070;-88
2021/12/23 05:30:36;;;;;;;40.33;20.08;;;-0.50;99.90;;;;;;5008165;28;20026;-88
2021/12/23 05:33:02;;;;;;;38.40;20.13;;;-0.50;99.90;;;;;;5012560;28;20025;-89
2021/12/23 05:35:27;;;;;;;34.35;19.13;;;-0.40;99.90;;;;;;5010476;28;20038;-89
2021/12/23 05:37:54;;;;;;;40.17;21.20;;;-0.30;99.90;;;;;;5010468;28;20029;-88
2021/12/23 05:40:23;;;;;;;41.20;20.67;;;-0.20;99.90;;;;;;5011949;28;20029;-90
2021/12/23 05:42:49;;;;;;;36.10;19.45;;;-0.10;99.90;;;;;;5020094;28;20113;-88
2021/12/23 05:45:16;;;;;;;39.80;20.67;;;-0.10;99.90;;;;;;5006355;28;20026;-89
2021/12/23 05:47:42;;;;;;;36.08;20.40;;;-0.10;99.90;;;;;;5003117;28;20603;-89
2021/12/23 05:50:09;;;;;;;38.90;19.17;;;-0.20;99.90;;;;;;5008592;28;20053;-89
2021/12/23 05:52:35;;;;;;;42.03;19.92;;;-0.30;99.90;;;;;;5014423;28;20033;-90
2021/12/23 05:55:02;;;;;;;43.08;20.52;;;-0.40;99.90;;;;;;5027125;28;20386;-89
2021/12/23 05:57:29;;;;;;;39.13;20.48;;;-0.50;99.90;;;;;;5009947;28;20397;-87
2021/12/23 05:59:55;;;;;;;43.95;21.90;;;-0.70;99.90;;;;;;5007605;28;20535;-89
2021/12/23 06:02:20;;;;;;;45.40;22.20;;;-0.80;99.90;;;;;;5014505;28;20077;-91
2021/12/23 06:04:46;;;;;;;36.72;19.45;;;-0.90;99.90;;;;;;5015079;28;20508;-89
2021/12/23 06:07:12;;;;;;;40.35;20.67;;;-1.00;99.90;;;;;;5014201;28;20028;-89
2021/12/23 06:09:37;;;;;;;39.78;20.30;;;-1.00;99.90;;;;;;5020785;28;20084;-89
2021/12/23 06:12:03;;;;;;;39.30;20.15;;;-1.00;99.90;;;;;;5012811;28;20029;-90
2021/12/23 06:14:29;;;;;;;43.63;20.15;;;-1.00;99.90;;;;;;5024697;28;20029;-89
2021/12/23 06:16:54;;;;;;;37.67;20.40;;;-1.00;99.90;;;;;;5016278;28;20478;-89
2021/12/23 06:19:20;;;;;;;40.47;20.65;;;-1.00;99.90;;;;;;5012321;28;20038;-90
2021/12/23 06:21:45;;;;;;;43.55;20.55;;;-1.00;99.90;;;;;;5019075;28;20482;-90
2021/12/23 06:24:11;;;;;;;41.80;20.65;;;-0.90;99.90;;;;;;5022767;28;20033;-90
2021/12/23 06:26:36;;;;;;;42.30;20.80;;;-0.90;99.90;;;;;;5016660;28;20026;-89
2021/12/23 06:29:02;;;;;;;42.00;21.20;;;-0.90;99.90;;;;;;5023372;28;20161;-89
2021/12/23 06:31:28;;;;;;;43.00;20.70;;;-0.90;99.90;;;;;;5015607;28;20471;-89
2021/12/23 06:33:53;;;;;;;42.95;21.27;;;-0.80;99.90;;;;;;5020619;28;20443;-89
2021/12/23 06:36:19;;;;;;;41.95;21.05;;;-0.80;99.90;;;;;;5011435;28;20044;-89
2021/12/23 06:38:45;;;;;;;41.20;21.00;;;-0.80;99.90;;;;;;5013881;28;20023;-88
2021/12/23 06:41:11;;;;;;;39.47;20.02;;;-0.70;99.90;;;;;;5013656;28;20057;-88
2021/12/23 06:43:37;;;;;;;43.25;21.48;;;-0.70;99.90;;;;;;5014555;28;20030;-89
2021/12/23 06:46:03;;;;;;;46.53;22.27;;;-0.70;99.90;;;;;;5013560;28;20437;-89
2021/12/23 06:48:32;;;;;;;45.22;20.10;;;-0.70;99.90;;;;;;5016558;28;20038;-89
2021/12/23 06:50:59;;;;;;;41.75;21.08;;;-0.60;99.90;;;;;;5016703;28;20025;-89
2021/12/23 06:53:25;;;;;;;42.35;21.45;;;-0.70;99.90;;;;;;5011881;28;20030;-89
2021/12/23 06:55:52;;;;;;;45.88;21.02;;;-0.60;99.90;;;;;;5016093;28;20386;-89
2021/12/23 06:58:19;;;;;;;46.08;22.65;;;-0.60;99.90;;;;;;5018930;28;20021;-90
2021/12/23 07:00:45;;;;;;;44.72;21.65;;;-0.60;99.90;;;;;;5031400;28;20034;-88
2021/12/23 07:03:11;;;;;;;37.65;19.50;;;-0.60;99.90;;;;;;5013967;28;20046;-89
2021/12/23 07:05:36;;;;;;;45.92;21.60;;;-0.50;99.90;;;;;;5016170;28;20056;-89
2021/12/23 07:08:12;;;;;;;43.42;22.90;;;-0.50;99.90;;;;;;5016025;28;20034;-89
2021/12/23 07:10:37;;;;;;;43.78;22.55;;;-0.50;99.90;;;;;;5012684;28;20026;-89
2021/12/23 07:13:04;;;;;;;44.47;22.42;;;-0.50;99.90;;;;;;5028499;28;20030;-89
2021/12/23 07:15:32;;;;;;;45.08;20.77;;;-0.40;99.90;;;;;;5010107;28;20104;-89
2021/12/23 07:18:00;;;;;;;49.25;22.63;;;-0.40;99.90;;;;;;5017587;28;20026;-89
2021/12/23 07:20:27;;;;;;;43.65;21.20;;;-0.30;99.90;;;;;;5017092;28;20025;-89
2021/12/23 07:22:53;;;;;;;44.28;22.92;;;-0.30;99.90;;;;;;5014318;28;20483;-89
2021/12/23 07:25:18;;;;;;;42.53;20.20;;;-0.30;99.90;;;;;;5036377;28;20032;-90
2021/12/23 07:27:44;;;;;;;45.80;21.33;;;-0.30;99.90;;;;;;5023646;28;20422;-90
2021/12/23 07:30:13;;;;;;;45.67;23.15;;;-0.30;99.90;;;;;;5002549;28;20528;-88
2021/12/23 07:32:39;;;;;;;45.10;22.08;;;-0.30;99.90;;;;;;5033574;28;20036;-90
2021/12/23 07:35:05;;;;;;;46.95;21.65;;;-0.30;99.90;;;;;;5020849;28;20037;-90
2021/12/23 07:37:31;;;;;;;44.33;22.17;;;-0.30;99.90;;;;;;4996102;28;20391;-90
2021/12/23 07:39:57;;;;;;;51.08;22.90;;;-0.30;99.90;;;;;;5029072;28;20028;-89
2021/12/23 07:42:24;;;;;;;45.13;22.70;;;-0.20;99.90;;;;;;5036053;28;20036;-89
2021/12/23 07:44:50;;;;;;;41.13;21.05;;;-0.20;99.90;;;;;;5020689;28;20022;-89
2021/12/23 07:47:17;;;;;;;47.88;23.30;;;-0.20;99.90;;;;;;5031473;28;20044;-90
2021/12/23 07:49:43;;;;;;;51.65;23.25;;;-0.20;99.90;;;;;;5018385;28;20038;-89
2021/12/23 07:52:09;;;;;;;48.92;22.27;;;-0.20;99.90;;;;;;5034992;28;20520;-90
2021/12/23 07:54:35;;;;;;;48.17;22.55;;;-0.10;99.90;;;;;;5015240;28;20030;-91
2021/12/23 07:57:02;;;;;;;42.33;21.02;;;-0.10;99.90;;;;;;5016291;28;20026;-92
2021/12/23 07:59:28;;;;;;;44.03;21.38;;;-0.10;99.90;;;;;;5015299;28;20034;-91
2021/12/23 08:01:55;;;;;;;52.08;23.40;;;-0.10;99.90;;;;;;5022413;28;20405;-91
2021/12/23 08:04:21;;;;;;;45.30;20.67;;;0.00;99.90;;;;;;5027092;28;20124;-92
2021/12/23 08:06:52;;;;;;;48.20;21.98;;;0.00;99.90;;;;;;5014954;28;20041;-88
2021/12/23 08:09:17;;;;;;;48.15;23.42;;;-0.10;99.90;;;;;;5015127;28;20129;-90
2021/12/23 08:11:43;;;;;;;53.10;22.83;;;-0.10;99.90;;;;;;5014788;28;20085;-91
2021/12/23 08:14:09;;;;;;;44.25;21.67;;;0.00;99.90;;;;;;5013241;28;20037;-92
2021/12/23 08:16:34;;;;;;;42.20;21.08;;;0.00;99.90;;;;;;5018511;28;20026;-89
2021/12/23 08:19:00;;;;;;;51.58;22.23;;;0.00;99.90;;;;;;5017543;28;20161;-90
2021/12/23 08:21:28;;;;;;;46.13;22.33;;;0.00;99.90;;;;;;5007167;28;20514;-89
2021/12/23 08:23:54;;;;;;;40.72;19.88;;;0.00;99.90;;;;;;5023338;28;20025;-89
2021/12/23 08:26:22;;;;;;;45.13;22.30;;;0.00;99.90;;;;;;5035816;28;20022;-89
2021/12/23 08:28:48;;;;;;;53.67;24.25;;;0.10;99.90;;;;;;5020836;28;20037;-89
2021/12/23 08:31:13;;;;;;;45.55;22.75;;;0.10;99.90;;;;;;5029154;28;20079;-88
2021/12/23 08:33:39;;;;;;;49.67;23.30;;;0.10;99.90;;;;;;5019296;28;20044;-88
2021/12/23 08:36:05;;;;;;;54.25;23.75;;;0.10;99.90;;;;;;5029288;28;20032;-89
2021/12/23 08:38:30;;;;;;;47.13;23.10;;;0.20;99.90;;;;;;5025613;28;20018;-89
2021/12/23 08:40:56;;;;;;;51.30;22.85;;;0.20;99.90;;;;;;5016481;28;20033;-89
2021/12/23 08:43:22;;;;;;;55.70;25.25;;;0.20;99.90;;;;;;5011189;28;20033;-90
2021/12/23 08:45:49;;;;;;;48.42;23.80;;;0.20;99.90;;;;;;5006326;28;20033;-89
2021/12/23 08:48:14;;;;;;;49.67;22.85;;;0.20;99.90;;;;;;5020008;28;20069;-90
2021/12/23 08:50:40;;;;;;;49.90;22.73;;;0.30;99.90;;;;;;5028414;28;20061;-90
2021/12/23 08:53:05;;;;;;;50.83;23.60;;;0.30;99.90;;;;;;5014012;28;20061;-89
2021/12/23 08:55:33;;;;;;;48.35;23.75;;;0.30;99.90;;;;;;5013776;28;20033;-89
2021/12/23 08:58:03;;;;;;;48.53;22.05;;;0.30;99.90;;;;;;5024971;28;20091;-89
2021/12/23 09:00:30;;;;;;;45.47;22.20;;;0.20;99.90;;;;;;5014711;28;20026;-90
2021/12/23 09:02:55;;;;;;;49.85;24.95;;;0.30;99.90;;;;;;5026958;28;20125;-89
2021/12/23 09:05:21;;;;;;;44.67;22.33;;;0.30;99.90;;;;;;5033126;28;20038;-91
2021/12/23 09:07:50;;;;;;;46.42;23.40;;;0.30;99.90;;;;;;5027932;28;20037;-90
2021/12/23 09:10:17;;;;;;;46.85;23.20;;;0.30;99.90;;;;;;5014688;28;20127;-90
2021/12/23 09:12:43;;;;;;;50.80;24.45;;;0.30;99.90;;;;;;5012895;28;20025;-90
2021/12/23 09:15:09;;;;;;;47.92;22.60;;;0.30;99.90;;;;;;5023627;28;20031;-89
2021/12/23 09:17:35;;;;;;;42.83;21.67;;;0.40;99.90;;;;;;5013314;28;20394;-89
2021/12/23 09:20:02;;;;;;;50.97;24.10;;;0.40;99.90;;;;;;5028949;28;20033;-89
2021/12/23 09:22:28;;;;;;;44.58;21.48;;;0.40;99.90;;;;;;5010250;28;20033;-89
2021/12/23 09:24:57;;;;;;;46.00;22.83;;;0.40;99.90;;;;;;5008583;28;20489;-89
2021/12/23 09:35:02;;;;;;;45.60;23.80;;;0.50;99.90;;;;;;5011813;28;20036;-88
2021/12/23 09:37:29;;;;;;;53.03;24.45;;;0.50;99.90;;;;;;5014009;28;20084;-89
2021/12/23 09:39:58;;;;;;;56.50;25.50;;;0.50;99.90;;;;;;5013202;28;20389;-91
2021/12/23 09:42:30;;;;;;;52.92;25.55;;;0.50;99.90;;;;;;5012407;28;20026;-90
2021/12/23 09:44:58;;;;;;;55.58;26.20;;;0.60;99.90;;;;;;5031449;28;20067;-89
2021/12/23 09:47:30;;;;;;;51.45;24.15;;;0.70;99.90;;;;;;5027894;28;20030;-88
2021/12/23 09:49:58;;;;;;;50.75;25.10;;;0.70;99.90;;;;;;5016805;28;20038;-90
2021/12/23 09:52:27;;;;;;;51.55;24.65;;;0.70;99.90;;;;;;5013289;28;20030;-91
2021/12/23 09:54:54;;;;;;;49.22;24.88;;;0.70;99.90;;;;;;5001019;28;20508;-87
2021/12/23 09:57:20;;;;;;;54.08;24.92;;;0.80;99.90;;;;;;5023167;28;20132;-90
2021/12/23 09:59:46;;;;;;;58.13;27.27;;;0.80;99.90;;;;;;5026398;28;20066;-89
2021/12/23 10:02:12;;;;;;;59.25;26.52;;;0.80;99.90;;;;;;5016724;28;20073;-88
2021/12/23 10:04:37;;;;;;;55.00;25.23;;;0.80;99.90;;;;;;5026347;28;20414;-90
2021/12/23 10:07:03;;;;;;;52.80;25.35;;;0.80;99.90;;;;;;5030439;28;20393;-89
2021/12/23 10:09:48;;;;;;;54.88;25.88;;;0.90;99.90;;;;;;5024718;28;20049;-90
2021/12/23 10:28:22;;;;;;;51.22;25.05;;;1.00;99.90;;;;;;5016253;28;20292;-89
2021/12/23 10:32:53;;;;;;;53.47;25.52;;;1.00;99.90;;;;;;5019213;28;20498;-89
2021/12/23 10:38:16;;;;;;;49.70;23.52;;;1.10;99.90;;;;;;5034897;28;20028;-89
2021/12/23 10:40:45;;;;;;;55.63;24.77;;;1.20;99.90;;;;;;5030105;28;20208;-90
2021/12/23 10:43:25;;;;;;;59.20;26.33;;;1.30;99.90;;;;;;5033355;28;20486;-89
2021/12/23 10:45:55;;;;;;;52.67;22.88;;;1.40;99.90;;;;;;5037611;28;20031;-89
2021/12/23 10:48:24;;;;;;;52.38;24.23;;;1.50;99.90;;;;;;5037018;28;20030;-90
2021/12/23 10:50:56;;;;;;;48.17;23.23;;;1.60;99.90;;;;;;5020599;28;20018;-90
2021/12/23 10:59:09;;;;;;;48.58;22.75;;;1.90;99.90;;;;;;5017957;28;20131;-90
2021/12/23 11:01:56;;;;;;;49.90;22.85;;;1.90;99.90;;;;;;5009594;28;20066;-90
2021/12/23 11:04:21;;;;;;;50.85;23.85;;;1.90;99.90;;;;;;5019800;28;20065;-90
2021/12/23 11:06:49;;;;;;;51.20;23.35;;;1.90;99.90;;;;;;5020325;28;20029;-90
2021/12/23 11:12:12;;;;;;;47.75;24.13;;;2.00;99.90;;;;;;5015993;28;20072;-91
2021/12/23 11:27:31;;;;;;;48.20;22.25;;;2.10;99.90;;;;;;5016082;28;20037;-89
2021/12/23 11:41:53;;;;;;;46.50;21.63;;;2.50;99.90;;;;;;5034606;28;20029;-89
2021/12/23 11:44:19;;;;;;;46.83;22.80;;;2.60;99.90;;;;;;5012159;28;20030;-89
2021/12/23 11:46:55;;;;;;;46.90;21.58;;;2.60;99.90;;;;;;5015549;28;20049;-89
2021/12/23 11:49:22;;;;;;;44.72;22.52;;;2.60;99.90;;;;;;5013558;28;20034;-89
2021/12/23 11:54:30;;;;;;;44.90;22.15;;;2.70;99.90;;;;;;5007155;28;20026;-88
2021/12/23 11:57:03;;;;;;;43.10;21.42;;;2.70;99.90;;;;;;5017318;28;20489;-88
2021/12/23 11:59:31;;;;;;;50.40;21.83;;;2.80;99.90;;;;;;5014057;28;20053;-89
2021/12/23 12:01:58;;;;;;;48.22;22.67;;;2.80;99.90;;;;;;5012210;28;20569;-89
2021/12/23 12:04:31;;;;;;;45.13;20.55;;;2.90;99.90;;;;;;5016453;28;20022;-86
2021/12/23 12:06:58;;;;;;;50.88;22.52;;;3.00;99.90;;;;;;4999134;28;20026;-88
2021/12/23 12:09:26;;;;;;;45.47;21.33;;;3.00;99.90;;;;;;5002264;28;20561;-88
2021/12/23 12:12:12;;;;;;;51.75;22.20;;;3.10;99.90;;;;;;5011075;28;20018;-88
2021/12/23 12:14:40;;;;;;;44.13;22.23;;;3.20;99.90;;;;;;5015127;28;20026;-88
2021/12/23 12:17:26;;;;;;;46.47;21.60;;;3.30;99.90;;;;;;5015135;28;20016;-87
2021/12/23 12:20:09;;;;;;;45.08;21.90;;;3.40;99.90;;;;;;5016273;28;20026;-88
2021/12/23 12:23:01;;;;;;;45.05;21.45;;;3.40;99.90;;;;;;5007576;28;20030;-89
2021/12/23 12:25:28;;;;;;;42.03;20.57;;;3.50;99.90;;;;;;5011852;28;20558;-88
2021/12/23 12:27:56;;;;;;;48.38;21.85;;;3.60;99.90;;;;;;4995947;28;20312;-88
2021/12/23 12:30:41;;;;;;;45.10;22.02;;;3.60;99.90;;;;;;4995190;28;20119;-88
2021/12/23 12:33:32;;;;;;;40.72;19.60;;;3.70;99.90;;;;;;4995517;28;20034;-89
2021/12/23 12:36:00;;;;;;;42.15;20.67;;;3.70;99.90;;;;;;5024134;28;20092;-89
2021/12/23 12:38:48;;;;;;;45.47;20.40;;;3.70;99.90;;;;;;5022885;28;20044;-89
2021/12/23 12:41:14;;;;;;;47.58;23.13;;;3.70;99.90;;;;;;5005412;28;20029;-88
2021/12/23 12:43:48;;;;;;;46.33;20.13;;;3.70;99.90;;;;;;5012468;28;20481;-88
2021/12/23 12:46:26;;;;;;;42.67;21.98;;;3.70;99.90;;;;;;5021701;28;20475;-88
2021/12/23 12:48:58;;;;;;;44.05;22.15;;;3.80;99.90;;;;;;5011910;28;20041;-87
2021/12/23 12:51:33;;;;;;;39.83;20.58;;;3.80;99.90;;;;;;5013218;28;20025;-87
2021/12/23 12:54:06;;;;;;;44.00;20.35;;;3.90;99.90;;;;;;5006446;28;20022;-88
2021/12/23 12:56:34;;;;;;;44.03;21.13;;;4.00;99.90;;;;;;5011527;28;20193;-87
2021/12/23 12:59:05;;;;;;;41.22;21.13;;;4.20;99.90;;;;;;5012024;28;20022;-88
2021/12/23 13:01:41;;;;;;;42.00;21.75;;;4.20;99.90;;;;;;5010565;28;20116;-87
2021/12/23 13:04:21;;;;;;;41.03;20.98;;;4.30;99.90;;;;;;5013992;28;20018;-88
2021/12/23 13:06:47;;;;;;;43.90;21.88;;;4.40;99.90;;;;;;5014346;28;20030;-88
2021/12/23 13:09:17;;;;;;;41.88;21.27;;;4.40;99.90;;;;;;5014637;28;20034;-88
2021/12/23 13:11:44;;;;;;;45.97;21.88;;;4.40;99.90;;;;;;5011452;28;20024;-87
2021/12/23 13:14:14;;;;;;;43.42;21.08;;;4.60;99.90;;;;;;5013926;28;20030;-87
2021/12/23 13:16:55;;;;;;;41.05;20.13;;;4.60;99.90;;;;;;5012990;28;20061;-87
2021/12/23 13:19:34;;;;;;;49.38;21.70;;;4.70;99.90;;;;;;5016970;28;20026;-87
2021/12/23 13:22:05;;;;;;;41.90;21.40;;;4.80;99.90;;;;;;5011442;28;20048;-87
2021/12/23 13:24:31;;;;;;;43.90;21.25;;;4.80;99.90;;;;;;5013615;28;20379;-87
2021/12/23 13:26:58;;;;;;;39.63;21.05;;;4.80;99.90;;;;;;5013008;28;20497;-87
2021/12/23 13:29:30;;;;;;;42.33;20.30;;;4.80;99.90;;;;;;5014530;28;20176;-87
2021/12/23 13:31:58;;;;;;;37.55;20.00;;;4.90;99.90;;;;;;5014030;28;20033;-87
2021/12/23 13:34:26;;;;;;;39.97;20.60;;;4.90;99.90;;;;;;5012234;28;20482;-87
2021/12/23 13:36:53;;;;;;;42.20;20.42;;;5.00;99.90;;;;;;5014191;28;20026;-87
2021/12/23 13:39:22;;;;;;;41.08;21.02;;;5.00;99.90;;;;;;5013928;28;20026;-88
2021/12/23 13:41:53;;;;;;;44.25;21.67;;;5.10;99.90;;;;;;5013507;28;20018;-87
2021/12/23 13:44:24;;;;;;;38.95;19.38;;;5.10;99.90;;;;;;5023378;28;20081;-88
2021/12/23 13:46:58;;;;;;;39.03;19.65;;;5.10;99.90;;;;;;5023013;28;20129;-89
2021/12/23 13:49:33;;;;;;;38.05;19.80;;;5.10;99.90;;;;;;5013303;28;20044;-87